Time;durP1;ratioP1;P1;durP2;ratioP2;P2;SDS_P1;SDS_P2;PMS_P1;PMS_P2;Temp;Humidity;BMP_temperature;BMP_pressure;BME280_temperature;BME280_humidity;BME280_pressure;Samples;Min_cycle;Max_cycle;Signal;HPM_P1;HPM_P2
2023/03/21 00:01:00;;;;;;;6.50;4.20;;;7.30;99.90;6.50;100100;;;;592511;238;24061;-78
2023/03/21 00:03:25;;;;;;;6.70;4.40;;;7.30;99.90;6.50;100104;;;;603293;238;24044;-76
2023/03/21 00:05:53;;;;;;;3.07;2.40;;;7.30;99.90;6.50;100104;;;;593838;238;24095;-79
2023/03/21 00:08:21;;;;;;;7.57;5.80;;;7.30;99.90;6.40;100097;;;;588928;238;34930;-74
2023/03/21 00:11:01;;;;;;;7.47;3.93;;;7.30;99.90;6.40;100099;;;;597823;238;24073;-78
2023/03/21 00:13:28;;;;;;;5.60;3.60;;;7.30;99.90;6.40;100100;;;;593786;238;24319;-76
2023/03/21 00:15:56;;;;;;;3.87;3.13;;;7.20;99.90;6.40;100085;;;;593689;238;24038;-73
2023/03/21 00:18:24;;;;;;;3.37;3.07;;;7.20;99.90;6.40;100093;;;;593751;238;24079;-73
2023/03/21 00:20:58;;;;;;;7.03;3.67;;;7.30;99.90;6.40;100091;;;;593826;238;24043;-74
2023/03/21 00:23:26;;;;;;;3.73;2.67;;;7.30;99.90;6.40;100101;;;;594251;238;24052;-76
2023/03/21 00:25:55;;;;;;;2.47;2.27;;;7.20;99.90;6.40;100084;;;;593576;238;24047;-73
2023/03/21 00:28:23;;;;;;;2.70;1.93;;;7.20;99.90;6.40;100084;;;;593503;238;24188;-76
2023/03/21 00:30:50;;;;;;;2.43;2.23;;;7.20;99.90;6.40;100078;;;;593995;238;24052;-74
2023/03/21 00:33:20;;;;;;;5.43;3.30;;;7.20;99.90;6.40;100082;;;;591974;238;24131;-73
2023/03/21 00:35:51;;;;;;;3.67;3.03;;;7.20;99.90;6.40;100070;;;;593977;238;24093;-73
2023/03/21 00:38:17;;;;;;;3.50;2.80;;;7.20;99.90;6.40;100075;;;;594061;238;24041;-75
2023/03/21 00:40:45;;;;;;;3.03;2.70;;;7.20;99.90;6.40;100070;;;;594010;238;24048;-74
2023/03/21 00:43:19;;;;;;;3.07;2.57;;;7.20;99.90;6.40;100083;;;;594081;238;24027;-75
2023/03/21 00:45:49;;;;;;;4.00;2.93;;;7.20;99.90;6.40;100081;;;;593852;238;24019;-73
2023/03/21 00:48:13;;;;;;;6.80;3.03;;;7.20;99.90;6.40;100086;;;;593530;238;24063;-75
2023/03/21 00:50:44;;;;;;;3.97;2.70;;;7.20;99.90;6.40;100095;;;;594016;238;24035;-74
2023/03/21 00:53:08;;;;;;;2.67;2.27;;;7.20;99.90;6.40;100095;;;;603076;238;24085;-74
2023/03/21 00:55:37;;;;;;;7.57;3.27;;;7.20;99.90;6.40;100087;;;;593986;238;24121;-74
2023/03/21 00:58:04;;;;;;;3.60;2.83;;;7.20;99.90;6.40;100088;;;;594003;238;24047;-77
2023/03/21 01:00:32;;;;;;;5.57;3.53;;;7.20;99.90;6.40;100078;;;;604568;236;24048;-74
2023/03/21 01:03:04;;;;;;;4.30;3.00;;;7.20;99.90;6.40;100086;;;;594601;237;24120;-75
2023/03/21 01:08:15;;;;;;;5.43;2.70;;;7.10;99.90;6.30;100089;;;;594251;238;24051;-75
2023/03/21 01:10:44;;;;;;;3.23;2.47;;;7.10;99.90;6.30;100094;;;;594250;238;24043;-76
2023/03/21 01:13:12;;;;;;;5.23;3.17;;;7.10;99.90;6.30;100100;;;;594057;238;24095;-75
2023/03/21 01:15:45;;;;;;;5.93;3.83;;;7.10;99.90;6.30;100098;;;;594337;238;24034;-74
2023/03/21 01:18:16;;;;;;;5.60;3.63;;;7.10;99.90;6.30;100088;;;;593969;238;24035;-80
2023/03/21 01:20:44;;;;;;;5.60;3.50;;;7.10;99.90;6.30;100085;;;;593626;238;24117;-73
2023/03/21 01:23:09;;;;;;;7.00;3.87;;;7.10;99.90;6.30;100093;;;;593653;238;24126;-74
2023/03/21 01:25:37;;;;;;;5.50;3.40;;;7.10;99.90;6.30;100083;;;;593864;238;24029;-78
2023/03/21 01:28:05;;;;;;;5.73;3.77;;;7.10;99.90;6.30;100088;;;;594014;238;24069;-76
2023/03/21 01:30:33;;;;;;;3.33;3.00;;;7.10;99.90;6.30;100086;;;;593719;238;24033;-78
2023/03/21 01:33:01;;;;;;;5.37;2.93;;;7.10;99.90;6.30;100087;;;;594272;238;24071;-78
2023/03/21 01:35:29;;;;;;;4.77;2.63;;;7.10;99.90;6.30;100088;;;;594257;238;24031;-75
2023/03/21 01:37:57;;;;;;;2.90;2.60;;;7.10;99.90;6.30;100081;;;;594004;238;24074;-73
2023/03/21 01:40:24;;;;;;;4.40;3.20;;;7.10;99.90;6.30;100080;;;;594043;238;24091;-73
2023/03/21 01:42:52;;;;;;;3.97;2.80;;;7.10;99.90;6.30;100085;;;;594043;238;24079;-74
2023/03/21 01:46:07;;;;;;;4.33;3.10;;;7.10;99.90;6.30;100088;;;;594063;238;24041;-73
2023/03/21 01:48:35;;;;;;;3.30;2.77;;;7.10;99.90;6.30;100081;;;;594089;238;24100;-72
2023/03/21 01:51:06;;;;;;;4.63;2.60;;;7.10;99.90;6.30;100079;;;;593965;238;24026;-75
2023/03/21 01:53:31;;;;;;;3.67;2.70;;;7.10;99.90;6.30;100089;;;;593864;238;24054;-73
2023/03/21 01:55:59;;;;;;;5.57;3.17;;;7.10;99.90;6.30;100080;;;;593869;238;24019;-74
2023/03/21 01:58:28;;;;;;;6.13;2.53;;;7.10;99.90;6.30;100087;;;;593577;238;24130;-74
2023/03/21 02:00:58;;;;;;;4.53;2.57;;;7.10;99.90;6.20;100089;;;;593947;238;24028;-74
2023/03/21 02:03:23;;;;;;;5.43;3.17;;;7.00;99.90;6.30;100096;;;;593694;238;24178;-73
2023/03/21 02:06:02;;;;;;;3.63;2.70;;;7.10;99.90;6.30;100092;;;;598016;238;24077;-74
2023/03/21 02:08:30;;;;;;;3.90;2.80;;;7.10;99.90;6.30;100108;;;;594016;238;24067;-77
2023/03/21 02:10:58;;;;;;;3.33;2.83;;;7.10;99.90;6.30;100111;;;;594709;237;24073;-73
2023/03/21 02:13:26;;;;;;;5.50;3.13;;;7.10;99.90;6.30;100104;;;;595299;237;25133;-72
2023/03/21 02:16:28;;;;;;;4.27;3.13;;;7.10;99.90;6.30;100110;;;;594969;237;24061;-73
2023/03/21 02:19:23;;;;;;;3.30;2.43;;;7.10;99.90;6.30;100108;;;;595012;237;24095;-75
2023/03/21 02:22:31;;;;;;;3.10;2.80;;;7.10;99.90;6.30;100110;;;;593910;238;24131;-74
2023/03/21 02:25:01;;;;;;;3.83;3.00;;;7.10;99.90;6.30;100111;;;;603957;238;24208;-73
2023/03/21 02:27:29;;;;;;;3.53;2.40;;;7.10;99.90;6.30;100110;;;;593277;238;24087;-76
2023/03/21 02:30:19;;;;;;;4.50;3.23;;;7.10;99.90;6.30;100107;;;;594214;238;24041;-72
2023/03/21 02:33:08;;;;;;;5.83;2.90;;;7.10;99.90;6.30;100105;;;;598182;238;24080;-75
2023/03/21 02:36:00;;;;;;;5.07;3.13;;;7.00;99.90;6.20;100103;;;;593976;238;24046;-74
2023/03/21 02:38:52;;;;;;;3.63;3.13;;;7.00;99.90;6.20;100112;;;;593202;238;24119;-75
2023/03/21 02:41:32;;;;;;;4.50;3.27;;;7.00;99.90;6.20;100102;;;;592740;238;24097;-72
2023/03/21 02:44:19;;;;;;;6.13;3.17;;;6.90;99.90;6.20;100110;;;;593547;238;24032;-74
2023/03/21 02:46:56;;;;;;;7.00;2.63;;;6.90;99.90;6.10;100101;;;;593730;238;24120;-73
2023/03/21 02:49:29;;;;;;;6.60;3.60;;;6.90;99.90;6.10;100108;;;;593886;238;24119;-73
2023/03/21 02:51:57;;;;;;;5.53;3.37;;;6.90;99.90;6.10;100104;;;;593394;238;24051;-74
2023/03/21 02:54:29;;;;;;;4.40;2.70;;;6.90;99.90;6.10;100102;;;;594124;238;24075;-73
2023/03/21 02:56:54;;;;;;;9.10;3.93;;;6.90;99.90;6.00;100108;;;;602746;238;24114;-74
2023/03/21 02:59:25;;;;;;;4.80;2.97;;;6.80;99.90;6.00;100106;;;;593516;238;24092;-74
2023/03/21 03:01:51;;;;;;;5.13;2.73;;;6.80;99.90;5.90;100103;;;;593737;238;24047;-81
2023/03/21 03:04:22;;;;;;;6.33;4.80;;;6.70;99.90;5.90;100105;;;;588603;238;35000;-79
2023/03/21 03:06:52;;;;;;;6.37;4.20;;;6.70;99.90;5.80;100106;;;;593660;238;24039;-80
2023/03/21 03:09:38;;;;;;;8.68;5.80;;;6.60;99.90;5.80;100109;;;;588291;238;34969;-79
2023/03/21 03:12:27;;;;;;;6.40;4.43;;;6.60;99.90;5.70;100126;;;;603545;238;24088;-79
2023/03/21 03:15:02;;;;;;;5.87;3.83;;;6.50;99.90;5.70;100114;;;;584637;238;24061;-79
2023/03/21 03:17:57;;;;;;;8.17;4.23;;;6.50;99.90;5.70;100124;;;;593571;238;24124;-78
2023/03/21 03:20:40;;;;;;;4.70;3.23;;;6.40;99.90;5.60;100128;;;;594046;238;24063;-73
2023/03/21 03:23:26;;;;;;;6.03;3.33;;;6.50;99.90;5.60;100120;;;;594679;237;24133;-72
2023/03/21 03:26:00;;;;;;;6.77;3.77;;;6.40;99.90;5.50;100119;;;;604370;237;24105;-73
2023/03/21 03:28:28;;;;;;;5.00;3.70;;;6.40;99.90;5.50;100113;;;;594518;237;24039;-73
2023/03/21 03:30:56;;;;;;;10.17;5.73;;;6.30;99.90;5.50;100119;;;;594525;237;24180;-74
2023/03/21 03:33:24;;;;;;;36.93;15.47;;;6.30;99.90;5.40;100118;;;;594562;238;24071;-73
2023/03/21 03:35:51;;;;;;;61.20;22.17;;;6.30;99.90;5.40;100130;;;;594618;238;26188;-76
2023/03/21 03:38:20;;;;;;;32.63;12.30;;;6.20;99.90;5.40;100129;;;;594100;238;24059;-72
2023/03/21 03:40:50;;;;;;;21.30;7.10;;;6.20;99.90;5.40;100133;;;;594023;238;24027;-73
2023/03/21 03:43:18;;;;;;;15.37;5.30;;;6.20;99.90;5.40;100133;;;;593746;238;24045;-75
2023/03/21 03:45:50;;;;;;;12.87;5.87;;;6.30;99.90;5.40;100131;;;;593821;238;24065;-72
2023/03/21 03:48:30;;;;;;;9.83;4.40;;;6.20;99.90;5.40;100128;;;;591669;242;24133;-73
2023/03/21 03:51:07;;;;;;;12.70;4.57;;;6.20;99.90;5.40;100128;;;;583122;242;24135;-73
2023/03/21 03:53:38;;;;;;;8.47;4.80;;;6.20;99.90;5.40;100133;;;;603161;238;24085;-75
2023/03/21 03:56:06;;;;;;;10.07;4.30;;;6.20;99.90;5.40;100126;;;;593824;238;24066;-75
2023/03/21 03:58:36;;;;;;;8.80;5.13;;;6.30;99.90;5.40;100125;;;;593722;238;24052;-74
2023/03/21 04:01:02;;;;;;;9.13;4.60;;;6.20;99.90;5.40;100122;;;;593354;238;24030;-74
2023/03/21 04:03:29;;;;;;;12.67;5.23;;;6.20;99.90;5.30;100129;;;;593517;238;24028;-73
2023/03/21 04:05:58;;;;;;;7.83;4.63;;;6.10;99.90;5.30;100133;;;;593676;238;24090;-74
2023/03/21 04:08:25;;;;;;;8.77;4.90;;;6.10;99.90;5.20;100133;;;;593389;238;24104;-77
2023/03/21 04:10:53;;;;;;;7.63;4.87;;;6.00;99.90;5.10;100128;;;;593588;238;24051;-77
2023/03/21 04:13:21;;;;;;;10.90;4.93;;;6.00;99.90;5.00;100129;;;;593802;238;24089;-78
2023/03/21 04:15:49;;;;;;;7.33;4.17;;;5.80;99.90;4.90;100127;;;;593639;238;24073;-78
2023/03/21 04:18:17;;;;;;;7.93;3.33;;;5.70;99.90;4.70;100129;;;;593805;238;24097;-77
2023/03/21 04:20:49;;;;;;;7.90;3.97;;;5.40;99.90;4.60;100136;;;;593693;238;24091;-79
2023/03/21 04:23:15;;;;;;;8.27;3.77;;;5.40;99.90;4.40;100122;;;;593534;238;24089;-79
2023/03/21 04:25:41;;;;;;;6.60;4.10;;;5.30;99.90;4.30;100124;;;;593684;238;24035;-78
2023/03/21 04:28:09;;;;;;;7.53;3.73;;;5.20;99.90;4.20;100146;;;;593593;238;24020;-78
2023/03/21 04:30:41;;;;;;;7.80;3.90;;;5.10;99.90;4.20;100143;;;;593679;238;24039;-76
2023/03/21 04:33:05;;;;;;;7.17;3.50;;;5.10;99.90;4.20;100147;;;;593176;238;24062;-78
2023/03/21 04:35:35;;;;;;;8.77;4.83;;;5.00;99.90;4.20;100141;;;;595476;237;24049;-77
2023/03/21 04:38:01;;;;;;;11.40;5.40;;;5.10;99.90;4.30;100140;;;;594689;237;24089;-76
2023/03/21 04:40:29;;;;;;;5.43;3.60;;;5.10;99.90;4.30;100147;;;;594961;237;24061;-74
2023/03/21 04:43:00;;;;;;;6.40;4.13;;;5.20;99.90;4.30;100155;;;;594693;238;24093;-76
2023/03/21 04:45:25;;;;;;;6.23;4.00;;;5.20;99.90;4.30;100154;;;;594530;238;24087;-74
2023/03/21 04:47:53;;;;;;;6.83;3.60;;;5.20;99.90;4.40;100162;;;;594610;238;24054;-73
2023/03/21 04:50:20;;;;;;;6.80;4.17;;;5.20;99.90;4.40;100158;;;;594615;238;25162;-72
2023/03/21 04:52:48;;;;;;;9.03;4.73;;;5.30;99.90;4.40;100158;;;;594373;238;24109;-73
2023/03/21 04:55:20;;;;;;;7.10;4.37;;;5.30;99.90;4.40;100171;;;;594362;238;24061;-74
2023/03/21 04:57:45;;;;;;;6.57;4.10;;;5.30;99.90;4.40;100170;;;;593931;238;24055;-74
2023/03/21 05:00:13;;;;;;;10.00;4.83;;;5.20;99.90;4.50;100159;;;;594380;238;24019;-73
2023/03/21 05:02:41;;;;;;;6.60;4.30;;;5.30;99.90;4.50;100158;;;;593800;238;24027;-73
2023/03/21 05:05:12;;;;;;;7.73;4.37;;;5.30;99.90;4.60;100171;;;;594153;238;24035;-73
2023/03/21 05:07:37;;;;;;;9.03;4.23;;;5.40;99.90;4.60;100175;;;;593756;238;24091;-74
2023/03/21 05:10:08;;;;;;;10.57;4.50;;;5.50;99.90;4.70;100166;;;;593577;238;24062;-74
2023/03/21 05:12:33;;;;;;;7.03;5.07;;;5.60;99.90;4.80;100174;;;;593464;238;24035;-74
2023/03/21 05:15:05;;;;;;;8.13;4.40;;;5.70;99.90;4.90;100169;;;;591882;242;24060;-74
2023/03/21 05:17:32;;;;;;;7.53;4.37;;;5.70;99.90;5.00;100178;;;;582600;242;24324;-72
2023/03/21 05:19:57;;;;;;;10.37;4.37;;;5.80;99.90;5.10;100178;;;;582663;242;24059;-73
2023/03/21 05:22:27;;;;;;;12.63;4.90;;;5.90;99.90;5.20;100192;;;;582684;242;24077;-74
2023/03/21 05:24:57;;;;;;;8.27;4.30;;;6.00;99.90;5.30;100187;;;;593659;238;24023;-72
2023/03/21 05:27:36;;;;;;;4.97;3.40;;;6.10;99.90;5.30;100188;;;;591458;238;24083;-73
2023/03/21 05:30:10;;;;;;;5.57;3.07;;;6.10;99.90;5.30;100183;;;;603108;238;24063;-77
2023/03/21 05:32:37;;;;;;;5.27;3.47;;;6.20;99.90;5.30;100191;;;;593567;238;24054;-73
2023/03/21 05:35:09;;;;;;;7.33;2.83;;;6.20;99.90;5.40;100188;;;;593794;238;24053;-75
2023/03/21 05:37:37;;;;;;;5.53;2.77;;;6.20;99.90;5.40;100191;;;;593174;238;24044;-77
2023/03/21 05:40:05;;;;;;;6.23;2.73;;;6.30;99.90;5.50;100193;;;;591292;238;24090;-76
2023/03/21 05:42:29;;;;;;;4.37;2.53;;;6.30;99.90;5.50;100192;;;;593801;238;24074;-76
2023/03/21 05:44:57;;;;;;;7.60;3.17;;;6.40;99.90;5.60;100198;;;;594086;235;24085;-73
2023/03/21 05:47:25;;;;;;;7.73;2.70;;;6.40;99.90;5.70;100200;;;;595615;237;24022;-73
2023/03/21 05:49:53;;;;;;;5.87;3.60;;;6.50;99.90;5.70;100195;;;;595162;237;24017;-79
2023/03/21 05:52:21;;;;;;;7.30;2.73;;;6.50;99.90;5.90;100200;;;;594927;237;24040;-79
2023/03/21 05:54:49;;;;;;;10.77;3.23;;;6.60;99.90;6.90;100198;;;;594484;238;24018;-77
2023/03/21 05:57:18;;;;;;;4.40;2.83;;;7.30;99.90;8.60;100206;;;;594264;238;24045;-78
2023/03/21 05:59:48;;;;;;;3.70;3.17;;;8.80;99.90;9.70;100212;;;;594254;238;25115;-77
2023/03/21 06:02:16;;;;;;;7.93;3.30;;;10.00;99.90;9.90;100209;;;;591700;238;24105;-78
2023/03/21 06:04:40;;;;;;;6.13;3.30;;;10.50;99.90;9.80;100208;;;;594115;238;24039;-76
2023/03/21 06:07:12;;;;;;;8.77;3.67;;;10.30;99.90;9.40;100206;;;;590111;242;24077;-79
2023/03/21 06:09:38;;;;;;;7.90;3.40;;;9.90;99.90;9.00;100213;;;;572307;247;25148;-79
2023/03/21 06:12:10;;;;;;;2.97;2.37;;;9.90;99.90;8.70;100210;;;;579929;242;24107;-79
2023/03/21 06:14:34;;;;;;;5.67;3.10;;;9.60;99.90;8.40;100212;;;;578457;243;24136;-78
2023/03/21 06:17:04;;;;;;;6.30;2.70;;;9.30;99.90;8.30;100218;;;;590985;237;24099;-74
2023/03/21 06:19:30;;;;;;;6.00;2.73;;;9.10;99.90;8.20;100227;;;;594897;239;24085;-77
2023/03/21 06:22:01;;;;;;;7.63;2.87;;;9.00;99.90;8.20;100227;;;;595896;237;24068;-78
2023/03/21 06:24:29;;;;;;;6.23;3.50;;;9.00;99.90;8.20;100229;;;;574658;242;24053;-79
2023/03/21 06:26:56;;;;;;;9.07;4.27;;;9.00;99.90;8.20;100235;;;;574543;245;35171;-79
2023/03/21 06:29:28;;;;;;;4.33;2.57;;;8.90;99.90;8.30;100236;;;;591968;242;24042;-77
2023/03/21 06:31:52;;;;;;;3.83;2.50;;;9.00;99.90;8.30;100240;;;;582672;242;24069;-79
2023/03/21 06:34:23;;;;;;;5.97;2.90;;;9.00;99.90;8.70;100243;;;;588217;238;24054;-79
2023/03/21 06:36:50;;;;;;;3.20;2.50;;;9.30;99.90;9.80;100254;;;;580642;243;24186;-77
2023/03/21 06:39:16;;;;;;;3.20;2.40;;;10.10;99.90;11.30;100254;;;;580190;244;24139;-78
2023/03/21 06:41:44;;;;;;;3.27;2.33;;;11.40;99.90;12.90;100259;;;;583268;243;24130;-79
2023/03/21 06:44:15;;;;;;;4.50;2.50;;;12.90;99.90;14.30;100267;;;;591325;239;24037;-76
2023/03/21 06:46:40;;;;;;;7.67;2.90;;;14.40;99.90;14.20;100273;;;;590840;239;24085;-76
2023/03/21 06:49:10;;;;;;;3.60;2.73;;;14.80;99.90;14.70;100271;;;;582837;243;24144;-79
2023/03/21 06:51:39;;;;;;;2.67;2.00;;;15.10;99.90;14.80;100277;;;;593013;238;24054;-79
2023/03/21 06:54:04;;;;;;;4.60;2.53;;;15.40;99.90;14.10;100275;;;;593240;238;24047;-76
2023/03/21 06:56:32;;;;;;;3.80;3.17;;;14.40;99.90;13.40;100278;;;;593932;236;24039;-76
2023/03/21 06:59:03;;;;;;;4.17;2.50;;;14.40;99.90;12.90;100278;;;;595268;237;24076;-76
2023/03/21 07:01:29;;;;;;;5.03;2.40;;;13.90;99.90;12.30;100286;;;;594567;237;24149;-76
2023/03/21 07:03:57;;;;;;;3.30;2.67;;;13.30;99.90;12.10;100282;;;;594973;237;24081;-77
2023/03/21 07:06:27;;;;;;;8.70;2.60;;;13.00;99.90;12.30;100274;;;;594656;238;24101;-76
2023/03/21 07:08:53;;;;;;;3.53;3.00;;;13.90;99.90;14.00;100282;;;;594276;238;24051;-77
2023/03/21 07:11:25;;;;;;;2.27;2.07;;;15.80;99.90;16.00;100288;;;;594642;238;24103;-77
2023/03/21 07:13:49;;;;;;;6.07;2.60;;;15.80;99.90;17.00;100300;;;;594194;238;24015;-76
2023/03/21 07:16:21;;;;;;;6.00;3.10;;;17.10;98.00;17.60;100304;;;;594442;238;24137;-76
2023/03/21 07:18:45;;;;;;;3.60;3.07;;;17.90;94.90;18.40;100299;;;;592362;241;24320;-80
2023/03/21 07:21:17;;;;;;;3.40;2.23;;;18.80;91.70;18.80;100306;;;;595532;235;24096;-77
2023/03/21 07:23:41;;;;;;;4.17;2.70;;;19.30;89.80;18.00;100309;;;;583043;242;24022;-77
2023/03/21 07:26:12;;;;;;;3.90;2.30;;;18.90;85.70;16.80;100311;;;;581827;247;23123;-80
2023/03/21 07:28:37;;;;;;;2.87;2.50;;;17.90;86.90;16.60;100303;;;;572969;247;24131;-78
2023/03/21 07:31:08;;;;;;;4.78;3.10;;;17.40;89.90;16.20;100312;;;;578696;242;35013;-74
2023/03/21 07:33:34;;;;;;;4.93;2.87;;;16.70;90.70;15.90;100302;;;;583478;242;24045;-79
2023/03/21 07:36:02;;;;;;;2.50;2.30;;;16.20;90.60;15.30;100306;;;;583367;242;24056;-76
2023/03/21 07:38:30;;;;;;;3.27;2.40;;;16.20;90.50;14.30;100300;;;;572250;247;24052;-78
2023/03/21 07:41:01;;;;;;;2.87;2.57;;;15.40;91.40;14.30;100301;;;;583388;242;24027;-80
2023/03/21 07:43:26;;;;;;;5.00;2.77;;;15.00;93.10;15.80;100307;;;;582815;242;24033;-79
2023/03/21 07:46:00;;;;;;;5.63;2.83;;;15.90;93.50;17.50;100309;;;;583027;242;24134;-78
2023/03/21 07:48:28;;;;;;;3.77;2.50;;;17.50;91.80;18.50;100312;;;;581283;242;24035;-77
2023/03/21 07:50:53;;;;;;;6.83;3.07;;;18.80;86.30;17.40;100314;;;;583100;242;23086;-76
2023/03/21 07:53:21;;;;;;;4.17;2.73;;;18.40;83.10;15.90;100321;;;;581673;247;23076;-76
2023/03/21 07:55:55;;;;;;;5.33;2.40;;;17.30;84.90;14.70;100318;;;;583311;242;24034;-78
2023/03/21 07:58:19;;;;;;;3.20;2.90;;;16.10;88.20;13.90;100318;;;;582151;239;24118;-80
2023/03/21 08:00:47;;;;;;;4.13;2.90;;;15.10;90.70;13.70;100330;;;;582894;239;24058;-81
2023/03/21 08:03:15;;;;;;;3.50;2.27;;;14.60;92.10;13.10;100320;;;;580427;244;24130;-79
2023/03/21 08:05:46;;;;;;;2.70;2.50;;;14.10;93.10;12.60;100321;;;;589849;243;24057;-80
2023/03/21 08:08:11;;;;;;;4.27;2.50;;;13.50;94.30;12.30;100323;;;;580578;241;24083;-80
2023/03/21 08:10:39;;;;;;;4.80;3.30;;;13.10;95.60;12.10;100326;;;;582026;243;24054;-80
2023/03/21 08:13:07;;;;;;;3.97;2.57;;;12.80;96.60;11.70;100330;;;;581583;242;24158;-77
2023/03/21 08:15:36;;;;;;;7.73;2.50;;;12.50;97.50;11.50;100335;;;;590430;243;24053;-80
2023/03/21 08:18:03;;;;;;;4.57;2.20;;;12.30;98.70;11.80;100335;;;;591232;238;24052;-78
2023/03/21 08:20:31;;;;;;;3.47;2.13;;;12.30;99.90;12.50;100338;;;;592516;239;24030;-80
2023/03/21 08:22:59;;;;;;;2.93;1.90;;;12.90;99.80;12.50;100342;;;;592646;239;24063;-79
2023/03/21 08:25:27;;;;;;;3.63;1.83;;;13.10;98.80;12.20;100335;;;;592510;239;23992;-79
2023/03/21 08:27:55;;;;;;;3.73;2.20;;;12.90;98.80;12.10;100342;;;;592436;239;24002;-78
2023/03/21 08:30:26;;;;;;;4.20;1.80;;;12.70;99.10;12.00;100348;;;;592406;239;24074;-79
2023/03/21 08:32:54;;;;;;;4.30;2.57;;;12.70;99.40;11.80;100352;;;;591825;239;24071;-77
2023/03/21 08:35:19;;;;;;;7.20;2.23;;;12.50;99.80;11.60;100352;;;;591738;238;24070;-78
2023/03/21 08:37:46;;;;;;;6.37;2.27;;;12.40;99.90;11.40;100344;;;;592180;239;24040;-78
2023/03/21 08:40:14;;;;;;;3.23;2.60;;;12.20;99.90;11.10;100353;;;;592241;239;24078;-77
2023/03/21 08:42:45;;;;;;;2.00;1.90;;;11.90;99.90;10.90;100368;;;;603922;238;24031;-79
2023/03/21 08:45:10;;;;;;;7.17;2.70;;;11.70;99.90;10.80;100358;;;;590216;242;24075;-80
2023/03/21 08:47:38;;;;;;;6.87;2.50;;;11.60;99.90;10.60;100380;;;;594045;238;24125;-79
2023/03/21 08:50:10;;;;;;;7.10;2.73;;;11.20;99.90;10.40;100365;;;;582140;241;24147;-78
2023/03/21 08:52:36;;;;;;;5.57;2.77;;;11.10;99.90;10.20;100371;;;;574930;246;25146;-79
2023/03/21 08:55:05;;;;;;;7.50;3.07;;;10.90;99.90;10.10;100373;;;;579239;244;24067;-80
2023/03/21 08:57:31;;;;;;;2.53;2.13;;;10.80;99.90;9.90;100375;;;;591215;243;24095;-78
2023/03/21 08:59:58;;;;;;;2.73;2.43;;;10.70;99.90;9.70;100378;;;;581042;244;24043;-79
2023/03/21 09:02:26;;;;;;;3.00;2.03;;;10.50;99.90;9.50;100376;;;;581059;244;24054;-78
2023/03/21 09:04:58;;;;;;;2.10;1.90;;;10.30;99.90;9.50;100384;;;;583172;243;24080;-79
2023/03/21 09:07:25;;;;;;;6.17;1.80;;;10.20;99.90;9.60;100376;;;;582818;243;24091;-80
2023/03/21 09:09:52;;;;;;;4.07;2.50;;;10.30;99.90;9.80;100372;;;;583249;243;24066;-79
2023/03/21 09:12:19;;;;;;;4.47;2.23;;;10.80;99.90;10.30;100379;;;;583312;243;24112;-79
2023/03/21 09:14:47;;;;;;;4.40;2.30;;;10.80;99.90;11.00;100377;;;;590517;240;24049;-78
2023/03/21 09:17:15;;;;;;;2.50;1.80;;;11.50;99.90;11.50;100371;;;;590430;240;24089;-79
2023/03/21 09:19:43;;;;;;;3.67;2.40;;;12.00;99.90;11.80;100376;;;;590591;238;24093;-77
2023/03/21 09:22:16;;;;;;;6.63;2.70;;;12.40;99.90;11.70;100384;;;;591045;238;24074;-78
2023/03/21 09:24:44;;;;;;;2.07;1.90;;;12.50;99.90;11.60;100383;;;;592136;242;24075;-82
2023/03/21 09:27:09;;;;;;;2.20;1.80;;;12.30;99.90;11.40;100378;;;;574122;246;24097;-79
2023/03/21 09:29:37;;;;;;;2.37;1.80;;;12.20;99.90;11.30;100379;;;;574014;247;24102;-78
2023/03/21 09:32:08;;;;;;;3.37;2.17;;;12.10;99.90;11.30;100386;;;;573911;247;24102;-76
2023/03/21 09:34:33;;;;;;;2.60;1.90;;;12.00;99.90;11.10;100383;;;;574270;247;24124;-77
2023/03/21 09:37:01;;;;;;;3.47;1.80;;;11.90;99.90;11.00;100385;;;;574346;244;24058;-77
2023/03/21 09:39:31;;;;;;;5.17;2.17;;;11.80;99.90;11.00;100387;;;;574323;247;24122;-75
2023/03/21 09:42:33;;;;;;;5.63;2.27;;;11.70;99.90;11.00;100392;;;;583323;247;24088;-79
2023/03/21 09:45:25;;;;;;;2.33;1.80;;;11.70;99.90;11.00;100383;;;;586012;242;24179;-77
2023/03/21 09:47:53;;;;;;;2.70;1.80;;;11.60;99.90;11.20;100387;;;;577228;243;24113;-78
2023/03/21 09:50:20;;;;;;;2.77;2.00;;;11.80;99.90;11.40;100385;;;;579818;247;24147;-79
2023/03/21 09:52:57;;;;;;;2.53;1.63;;;12.00;99.90;11.60;100390;;;;583763;242;24058;-79
2023/03/21 09:55:25;;;;;;;5.07;1.97;;;12.20;99.90;11.80;100387;;;;584030;242;24082;-80
2023/03/21 09:58:14;;;;;;;5.10;2.00;;;12.50;99.90;11.80;100395;;;;584182;242;24129;-78
2023/03/21 10:00:45;;;;;;;2.33;2.13;;;12.50;99.90;12.10;100395;;;;583235;236;24066;-77
2023/03/21 10:03:15;;;;;;;2.13;1.93;;;12.60;99.90;12.20;100389;;;;595740;238;24061;-78
2023/03/21 10:05:44;;;;;;;2.50;2.27;;;12.80;99.90;12.10;100380;;;;594036;238;24044;-77
2023/03/21 10:08:08;;;;;;;4.03;2.30;;;12.80;99.90;12.00;100379;;;;594119;238;24105;-76
2023/03/21 10:10:40;;;;;;;2.80;2.03;;;12.70;99.90;12.00;100380;;;;592546;238;24104;-79
2023/03/21 10:13:07;;;;;;;2.63;2.30;;;12.70;99.90;12.10;100386;;;;598788;238;24096;-78
2023/03/21 10:15:38;;;;;;;4.10;1.80;;;12.80;99.90;12.10;100387;;;;591525;238;24045;-78
2023/03/21 10:18:02;;;;;;;7.90;1.70;;;12.70;99.90;12.60;100391;;;;590469;237;24013;-78
2023/03/21 10:20:30;;;;;;;2.97;2.27;;;13.10;99.90;13.10;100397;;;;578389;244;24050;-79
2023/03/21 10:23:02;;;;;;;2.50;2.10;;;13.60;99.90;13.30;100392;;;;586555;244;24107;-79
2023/03/21 10:25:44;;;;;;;3.97;1.57;;;13.90;98.10;13.20;100400;;;;587144;244;24147;-79
2023/03/21 10:28:15;;;;;;;2.50;1.80;;;13.90;97.40;13.30;100393;;;;576174;244;24103;-79
2023/03/21 10:30:57;;;;;;;2.83;2.00;;;14.00;97.40;13.60;100404;;;;575045;244;24071;-78
2023/03/21 10:33:26;;;;;;;3.07;2.07;;;14.40;97.10;13.70;100402;;;;569763;244;24067;-79
2023/03/21 10:36:07;;;;;;;2.83;2.00;;;14.40;97.10;13.70;100407;;;;578940;244;24002;-79
2023/03/21 10:38:35;;;;;;;3.17;2.27;;;14.30;97.10;13.60;100403;;;;578406;244;24283;-77
2023/03/21 10:41:03;;;;;;;3.43;1.90;;;14.30;97.00;13.50;100400;;;;579185;244;24053;-79
2023/03/21 10:43:33;;;;;;;4.60;2.33;;;14.10;96.50;13.40;100410;;;;587986;239;24060;-80
2023/03/21 10:45:59;;;;;;;3.03;1.60;;;14.10;96.60;13.40;100407;;;;578579;244;24104;-80
2023/03/21 10:48:26;;;;;;;7.97;1.90;;;14.00;96.30;13.60;100403;;;;578999;244;24104;-80
2023/03/21 10:50:55;;;;;;;1.80;1.70;;;14.10;96.70;13.60;100410;;;;586999;239;24099;-80
2023/03/21 10:53:40;;;;;;;2.60;1.63;;;14.20;96.60;13.50;100412;;;;578097;245;24078;-80
2023/03/21 10:56:08;;;;;;;2.47;2.20;;;14.10;95.60;13.40;100404;;;;587486;239;24088;-79
2023/03/21 10:58:38;;;;;;;3.67;2.10;;;14.00;95.70;13.30;100403;;;;578746;243;24096;-80
2023/03/21 11:01:04;;;;;;;5.53;2.20;;;13.90;95.90;13.30;100402;;;;587588;239;24108;-79
2023/03/21 11:03:32;;;;;;;3.20;2.13;;;13.90;95.70;13.20;100401;;;;574879;245;24089;-79
2023/03/21 11:06:09;;;;;;;2.63;2.10;;;13.80;95.90;13.10;100404;;;;584220;244;24053;-81
2023/03/21 11:08:45;;;;;;;4.57;2.53;;;13.70;96.50;13.20;100390;;;;589325;240;24050;-80
2023/03/21 11:11:19;;;;;;;3.77;2.40;;;13.80;96.40;13.20;100397;;;;578272;244;24101;-80
2023/03/21 11:13:47;;;;;;;2.90;2.17;;;13.80;95.90;13.10;100388;;;;581389;241;25217;-77
2023/03/21 11:16:18;;;;;;;1.90;1.73;;;13.80;95.60;13.20;100396;;;;571921;247;24133;-79
2023/03/21 11:18:46;;;;;;;3.63;2.00;;;13.80;95.80;13.20;100391;;;;581324;242;24058;-80
2023/03/21 11:21:14;;;;;;;3.80;2.17;;;13.80;95.40;13.30;100399;;;;590276;240;24119;-79
2023/03/21 11:23:45;;;;;;;2.17;1.90;;;13.90;95.10;13.40;100392;;;;579012;244;24125;-78
2023/03/21 11:26:13;;;;;;;2.40;1.90;;;14.00;94.90;13.60;100392;;;;579576;242;24099;-79
2023/03/21 11:28:44;;;;;;;1.93;1.60;;;14.20;94.70;13.80;100388;;;;587505;243;24078;-77
2023/03/21 11:31:12;;;;;;;1.73;1.57;;;14.40;94.20;13.80;100395;;;;587419;239;24076;-79
2023/03/21 11:33:39;;;;;;;1.83;1.67;;;14.40;93.70;13.60;100391;;;;582855;243;24144;-80